Time;durP1;ratioP1;P1;durP2;ratioP2;P2;SDS_P1;SDS_P2;PMS_P1;PMS_P2;Temp;Humidity;BMP_temperature;BMP_pressure;BME280_temperature;BME280_humidity;BME280_pressure;Samples;Min_cycle;Max_cycle;Signal;HPM_P1;HPM_P2
2021/08/31 00:01:00;;;;;;;17.10;13.40;;;14.80;99.90;;;;;;5011310;28;20537;-66
2021/08/31 00:03:28;;;;;;;15.20;12.93;;;14.80;99.90;;;;;;5010810;28;20501;-66
2021/08/31 00:05:54;;;;;;;15.50;13.33;;;14.80;99.90;;;;;;5011158;28;20450;-67
2021/08/31 00:08:22;;;;;;;16.10;13.13;;;14.80;99.90;;;;;;5010942;28;20572;-67
2021/08/31 00:10:49;;;;;;;16.90;14.43;;;14.80;99.90;;;;;;5011012;28;20454;-67
2021/08/31 00:13:17;;;;;;;17.87;14.43;;;14.80;99.90;;;;;;5010836;28;20568;-66
2021/08/31 00:15:44;;;;;;;22.13;16.17;;;14.80;99.90;;;;;;5011118;28;20480;-67
2021/08/31 00:18:11;;;;;;;15.17;12.70;;;14.80;99.90;;;;;;5011261;28;20921;-67
2021/08/31 00:20:38;;;;;;;15.47;13.63;;;14.80;99.90;;;;;;5011275;28;20489;-65
2021/08/31 00:23:05;;;;;;;15.13;13.17;;;14.80;99.90;;;;;;5010933;28;20474;-65
2021/08/31 00:25:32;;;;;;;16.47;14.77;;;14.70;99.90;;;;;;5010672;28;20561;-65
2021/08/31 00:27:59;;;;;;;15.53;13.80;;;14.70;99.90;;;;;;5010733;28;20541;-65
2021/08/31 00:30:27;;;;;;;16.43;12.60;;;14.80;99.90;;;;;;5011043;28;20446;-65
2021/08/31 00:32:54;;;;;;;17.10;14.23;;;14.80;99.90;;;;;;5010562;28;20469;-66
2021/08/31 00:35:21;;;;;;;19.80;15.23;;;14.70;99.90;;;;;;5010811;28;20938;-65
2021/08/31 00:37:47;;;;;;;20.23;16.03;;;14.70;99.90;;;;;;5010010;28;20448;-66
2021/08/31 00:40:15;;;;;;;20.87;17.67;;;14.70;99.90;;;;;;5010522;28;20829;-66
2021/08/31 00:42:41;;;;;;;23.77;18.90;;;14.70;99.90;;;;;;5010187;28;20981;-66
2021/08/31 00:45:09;;;;;;;22.67;19.20;;;14.70;99.90;;;;;;5010595;28;20493;-66
2021/08/31 00:47:38;;;;;;;22.60;18.13;;;14.70;99.90;;;;;;5010451;28;20453;-66
2021/08/31 00:50:06;;;;;;;23.90;19.53;;;14.80;99.90;;;;;;5010518;28;21221;-65
2021/08/31 00:52:32;;;;;;;25.97;19.13;;;14.80;99.90;;;;;;5010076;28;20484;-65
2021/08/31 00:55:00;;;;;;;23.97;20.80;;;14.80;99.90;;;;;;5010250;28;21064;-66
2021/08/31 00:57:28;;;;;;;26.80;21.73;;;14.80;99.90;;;;;;5010522;28;20549;-66
2021/08/31 00:59:55;;;;;;;28.30;22.57;;;14.80;99.90;;;;;;5010476;28;21138;-65
2021/08/31 01:02:22;;;;;;;28.97;21.70;;;14.80;99.90;;;;;;5010175;28;20477;-66
2021/08/31 01:04:50;;;;;;;25.73;22.03;;;14.80;99.90;;;;;;5010255;28;20972;-67
2021/08/31 01:07:17;;;;;;;32.30;22.70;;;14.80;99.90;;;;;;5010491;28;20834;-67
2021/08/31 01:09:45;;;;;;;28.80;22.47;;;14.70;99.90;;;;;;5010487;28;20482;-67
2021/08/31 01:12:12;;;;;;;29.77;21.67;;;14.70;99.90;;;;;;5010170;28;20474;-67
2021/08/31 01:14:40;;;;;;;30.43;23.80;;;14.80;99.90;;;;;;5010716;28;20465;-66
2021/08/31 01:17:08;;;;;;;27.53;21.47;;;14.80;99.90;;;;;;5010696;28;20453;-67
2021/08/31 01:19:34;;;;;;;27.87;20.73;;;14.70;99.90;;;;;;5010531;28;20878;-66
2021/08/31 01:22:06;;;;;;;24.77;19.33;;;14.70;99.90;;;;;;5010396;28;20457;-68
2021/08/31 01:24:33;;;;;;;27.93;23.10;;;14.70;99.90;;;;;;5010625;28;20449;-67
2021/08/31 01:27:03;;;;;;;27.97;22.60;;;14.70;99.90;;;;;;5010613;28;20460;-67
2021/08/31 01:29:32;;;;;;;28.83;23.23;;;14.70;99.90;;;;;;5010252;28;20474;-66
2021/08/31 01:32:00;;;;;;;27.77;23.43;;;14.70;99.90;;;;;;5010005;28;20824;-67
2021/08/31 01:34:27;;;;;;;28.67;21.50;;;14.70;99.90;;;;;;5010335;28;20544;-67
2021/08/31 01:36:54;;;;;;;28.17;22.40;;;14.70;99.90;;;;;;5010940;28;20452;-66
2021/08/31 01:39:21;;;;;;;26.00;20.80;;;14.60;99.90;;;;;;5010212;28;20445;-67
2021/08/31 01:41:48;;;;;;;24.10;19.97;;;14.60;99.90;;;;;;5010046;28;20458;-66
2021/08/31 01:44:17;;;;;;;23.83;18.70;;;14.60;99.90;;;;;;5010407;28;20457;-67
2021/08/31 01:46:44;;;;;;;23.60;19.87;;;14.60;99.90;;;;;;5010239;28;20549;-68
2021/08/31 01:49:10;;;;;;;25.03;19.93;;;14.60;99.90;;;;;;5013472;28;21008;-67
2021/08/31 01:51:37;;;;;;;26.47;19.33;;;14.60;99.90;;;;;;5013190;28;21312;-67
2021/08/31 01:54:05;;;;;;;22.60;17.20;;;14.70;99.90;;;;;;5013536;28;20999;-65
2021/08/31 01:56:32;;;;;;;26.23;18.73;;;14.60;99.90;;;;;;5013810;28;20458;-67
2021/08/31 01:58:59;;;;;;;26.40;19.40;;;14.60;99.90;;;;;;5013603;28;20450;-67
2021/08/31 02:01:28;;;;;;;30.47;19.17;;;14.60;99.90;;;;;;5013647;28;20454;-66
2021/08/31 02:03:54;;;;;;;22.50;19.00;;;14.50;99.90;;;;;;5013716;28;20906;-67
2021/08/31 02:06:21;;;;;;;26.77;18.00;;;14.50;99.90;;;;;;5014056;28;20456;-67
2021/08/31 02:08:48;;;;;;;22.40;19.97;;;14.50;99.90;;;;;;5013330;28;20450;-67
2021/08/31 02:11:15;;;;;;;52.73;22.27;;;14.40;99.90;;;;;;5013156;28;20465;-67
2021/08/31 02:13:42;;;;;;;24.33;19.70;;;14.40;99.90;;;;;;5012893;28;20470;-67
2021/08/31 02:16:09;;;;;;;24.47;17.50;;;14.30;99.90;;;;;;5013544;28;20483;-67
2021/08/31 02:18:39;;;;;;;35.23;20.13;;;14.30;99.90;;;;;;5013111;28;20450;-66
2021/08/31 02:21:06;;;;;;;36.30;19.80;;;14.30;99.90;;;;;;5013256;28;20438;-67
2021/08/31 02:23:33;;;;;;;33.40;20.30;;;14.30;99.90;;;;;;5012611;28;20836;-67
2021/08/31 02:26:00;;;;;;;25.90;20.70;;;14.40;99.90;;;;;;5012999;28;20587;-67
2021/08/31 02:28:27;;;;;;;33.30;22.50;;;14.40;99.90;;;;;;5012930;28;20556;-66
2021/08/31 02:30:54;;;;;;;33.20;20.00;;;14.40;99.90;;;;;;5013052;28;20492;-67
2021/08/31 02:33:21;;;;;;;24.07;19.53;;;14.40;99.90;;;;;;5012499;28;21011;-66
2021/08/31 02:35:49;;;;;;;26.97;19.83;;;14.40;99.90;;;;;;5013223;28;20450;-67
2021/08/31 02:38:16;;;;;;;30.10;20.00;;;14.40;99.90;;;;;;5012525;28;20461;-66
2021/08/31 02:40:43;;;;;;;24.37;20.37;;;14.40;99.90;;;;;;5012562;28;21042;-67
2021/08/31 02:43:10;;;;;;;26.93;19.00;;;14.40;99.90;;;;;;5012305;28;20472;-66
2021/08/31 02:45:36;;;;;;;36.70;19.90;;;14.40;99.90;;;;;;5012795;28;20445;-67
2021/08/31 02:48:04;;;;;;;25.43;19.10;;;14.30;99.90;;;;;;5012642;28;20544;-67
2021/08/31 02:50:30;;;;;;;31.47;20.00;;;14.30;99.90;;;;;;5012352;28;21001;-66
2021/08/31 02:52:59;;;;;;;50.60;22.63;;;14.20;99.90;;;;;;5012204;28;20478;-66
2021/08/31 02:55:25;;;;;;;27.83;19.03;;;14.20;99.90;;;;;;5012020;28;20446;-67
2021/08/31 02:57:53;;;;;;;26.70;19.87;;;14.20;99.90;;;;;;5012617;28;20449;-67
2021/08/31 03:00:19;;;;;;;102.67;31.20;;;14.20;99.90;;;;;;5011730;28;20438;-66
2021/08/31 03:02:47;;;;;;;26.50;20.27;;;14.20;99.90;;;;;;5012030;28;20471;-67
2021/08/31 03:05:14;;;;;;;41.50;21.97;;;14.20;99.90;;;;;;5012318;28;20449;-67
2021/08/31 03:07:41;;;;;;;26.60;20.30;;;14.30;99.90;;;;;;5012070;28;20450;-67
2021/08/31 03:10:10;;;;;;;26.10;21.70;;;14.40;99.90;;;;;;5011886;28;21291;-67
2021/08/31 03:12:38;;;;;;;29.93;21.03;;;14.40;99.90;;;;;;5012047;28;20472;-66
2021/08/31 03:15:06;;;;;;;25.70;20.20;;;14.30;99.90;;;;;;5012115;28;20458;-67
2021/08/31 03:17:33;;;;;;;26.60;20.53;;;14.30;99.90;;;;;;5011933;28;20453;-66
2021/08/31 03:20:00;;;;;;;25.03;21.03;;;14.30;99.90;;;;;;5011902;28;20824;-67
2021/08/31 03:22:27;;;;;;;26.70;20.60;;;14.40;99.90;;;;;;5011277;28;20476;-67
2021/08/31 03:24:53;;;;;;;23.53;18.90;;;14.50;99.90;;;;;;5012058;28;20449;-67
2021/08/31 03:27:22;;;;;;;24.67;19.83;;;14.50;99.90;;;;;;5012023;28;20450;-67
2021/08/31 03:29:48;;;;;;;29.70;20.37;;;14.50;99.90;;;;;;5011906;28;21058;-67
2021/08/31 03:32:15;;;;;;;23.13;18.17;;;14.50;99.90;;;;;;5011772;28;20466;-67
2021/08/31 03:34:42;;;;;;;24.70;18.07;;;14.50;99.90;;;;;;5012035;28;20477;-67
2021/08/31 03:37:09;;;;;;;29.57;19.70;;;14.60;99.90;;;;;;5011542;28;20968;-67
2021/08/31 03:39:36;;;;;;;25.40;19.17;;;14.50;99.90;;;;;;5011726;28;20446;-67
2021/08/31 03:42:04;;;;;;;25.27;18.87;;;14.50;99.90;;;;;;5011061;28;21056;-67
2021/08/31 03:44:32;;;;;;;24.87;19.10;;;14.50;99.90;;;;;;5011630;28;20460;-67
2021/08/31 03:46:59;;;;;;;24.80;20.77;;;14.50;99.90;;;;;;5011596;28;21266;-67
2021/08/31 03:49:26;;;;;;;24.10;19.07;;;14.50;99.90;;;;;;5011604;28;20572;-67
2021/08/31 03:51:53;;;;;;;22.67;18.30;;;14.50;99.90;;;;;;5011307;28;20803;-66
2021/08/31 03:54:19;;;;;;;22.93;18.53;;;14.50;99.90;;;;;;5011864;28;20464;-68
2021/08/31 03:56:46;;;;;;;21.93;19.20;;;14.50;99.90;;;;;;5011698;28;20937;-67
2021/08/31 03:59:13;;;;;;;26.37;20.20;;;14.40;99.90;;;;;;5011610;28;20458;-65
2021/08/31 04:01:41;;;;;;;27.33;20.90;;;14.30;99.90;;;;;;5011250;28;20824;-65
2021/08/31 04:04:08;;;;;;;26.27;20.13;;;14.30;99.90;;;;;;5011295;28;20477;-65
2021/08/31 04:06:35;;;;;;;29.40;21.30;;;14.20;99.90;;;;;;5011282;28;20461;-65
2021/08/31 04:09:02;;;;;;;28.87;22.60;;;14.20;99.90;;;;;;5011135;28;20544;-65
2021/08/31 04:11:29;;;;;;;30.57;21.37;;;14.30;99.90;;;;;;5010632;28;21009;-65
2021/08/31 04:13:55;;;;;;;27.87;17.77;;;14.30;99.90;;;;;;5010146;28;20477;-67
2021/08/31 04:16:22;;;;;;;26.83;20.33;;;14.30;99.90;;;;;;5011002;28;20446;-65
2021/08/31 04:18:50;;;;;;;27.20;21.57;;;14.30;99.90;;;;;;5011024;28;20441;-65
2021/08/31 04:21:17;;;;;;;27.93;22.53;;;14.30;99.90;;;;;;5010567;28;20442;-65
2021/08/31 04:23:44;;;;;;;25.30;21.10;;;14.30;99.90;;;;;;5010991;28;20478;-66
2021/08/31 04:26:11;;;;;;;31.23;23.23;;;14.30;99.90;;;;;;5010899;28;20818;-67
2021/08/31 04:28:38;;;;;;;33.10;24.03;;;14.30;99.90;;;;;;5010861;28;20456;-66
2021/08/31 04:31:05;;;;;;;30.67;22.97;;;14.30;99.90;;;;;;5010507;28;20484;-65
2021/08/31 04:33:31;;;;;;;28.10;22.03;;;14.30;99.90;;;;;;5010364;28;20580;-66
2021/08/31 04:36:00;;;;;;;30.60;22.90;;;14.30;99.90;;;;;;5010739;28;20844;-66
2021/08/31 04:38:26;;;;;;;28.30;22.87;;;14.40;99.90;;;;;;5010852;28;20452;-65
2021/08/31 04:40:53;;;;;;;27.17;21.03;;;14.50;99.90;;;;;;5010650;28;20859;-65
2021/08/31 04:43:21;;;;;;;25.23;20.00;;;14.50;99.90;;;;;;5010490;28;20470;-66
2021/08/31 04:45:48;;;;;;;27.67;21.63;;;14.60;99.90;;;;;;5011311;28;20507;-67
2021/08/31 04:48:15;;;;;;;25.50;21.17;;;14.70;99.90;;;;;;5010692;28;20450;-67
2021/08/31 04:50:42;;;;;;;25.93;19.67;;;14.70;99.90;;;;;;5010542;28;20493;-67
2021/08/31 04:53:10;;;;;;;22.23;18.67;;;14.70;99.90;;;;;;5010099;28;20567;-67
2021/08/31 04:55:37;;;;;;;26.60;19.10;;;14.70;99.90;;;;;;5010367;28;20472;-67
2021/08/31 04:58:04;;;;;;;24.63;20.00;;;14.80;99.90;;;;;;5010367;28;20544;-67
2021/08/31 05:00:31;;;;;;;21.97;17.63;;;14.80;99.90;;;;;;5010319;28;20454;-67
2021/08/31 05:02:58;;;;;;;20.60;17.40;;;14.80;99.90;;;;;;5009898;28;21022;-67
2021/08/31 05:05:25;;;;;;;23.00;19.80;;;14.80;99.90;;;;;;5010379;28;20473;-66
2021/08/31 05:07:52;;;;;;;21.80;18.13;;;14.70;99.90;;;;;;5010356;28;20975;-66
2021/08/31 05:10:20;;;;;;;19.17;16.83;;;14.80;99.90;;;;;;5010741;28;20938;-65
2021/08/31 05:12:47;;;;;;;21.23;16.87;;;14.80;99.90;;;;;;5010368;28;20469;-67
2021/08/31 05:15:14;;;;;;;20.67;17.00;;;14.80;99.90;;;;;;5010867;28;20453;-67
2021/08/31 05:17:41;;;;;;;21.53;17.97;;;14.90;99.90;;;;;;5011214;28;20843;-66
2021/08/31 05:20:09;;;;;;;20.17;17.97;;;14.90;99.90;;;;;;5011088;28;20521;-67
2021/08/31 05:22:36;;;;;;;22.50;17.43;;;14.90;99.90;;;;;;5011181;28;20473;-67
2021/08/31 05:25:04;;;;;;;16.73;15.07;;;15.00;99.90;;;;;;5014449;28;20445;-67
2021/08/31 05:27:33;;;;;;;21.50;15.23;;;14.90;99.90;;;;;;5014324;28;20442;-67
2021/08/31 05:30:00;;;;;;;19.20;16.47;;;14.90;99.90;;;;;;5014015;28;20488;-67
2021/08/31 05:32:27;;;;;;;19.47;16.47;;;14.90;99.90;;;;;;5013644;28;20858;-67
2021/08/31 05:34:54;;;;;;;18.43;15.20;;;14.90;99.90;;;;;;5013883;28;20815;-66
2021/08/31 05:37:21;;;;;;;16.37;14.57;;;14.90;99.90;;;;;;5013800;28;20446;-66
2021/08/31 05:39:48;;;;;;;17.87;16.00;;;15.00;99.90;;;;;;5013985;28;20548;-67
2021/08/31 05:42:15;;;;;;;16.40;14.70;;;14.90;99.90;;;;;;5013312;28;20987;-66
2021/08/31 05:44:43;;;;;;;16.67;14.80;;;15.00;99.90;;;;;;5013848;28;20441;-67
2021/08/31 05:47:10;;;;;;;18.20;15.57;;;15.00;99.90;;;;;;5013524;28;20445;-67
2021/08/31 05:49:37;;;;;;;17.50;15.70;;;15.00;99.90;;;;;;5013471;28;20798;-67
2021/08/31 05:52:05;;;;;;;18.57;14.80;;;15.10;99.90;;;;;;5013213;28;20493;-66
2021/08/31 05:54:32;;;;;;;15.87;14.20;;;15.00;99.90;;;;;;5013578;28;20449;-67
2021/08/31 05:57:00;;;;;;;17.30;13.93;;;15.10;99.90;;;;;;5013559;28;20445;-67
2021/08/31 05:59:27;;;;;;;16.33;13.53;;;15.10;99.90;;;;;;5013239;28;20600;-67
2021/08/31 06:01:55;;;;;;;16.37;13.67;;;15.20;99.90;;;;;;5012922;28;20964;-67
2021/08/31 06:04:25;;;;;;;16.53;14.10;;;15.20;99.90;;;;;;5013103;28;20812;-66
2021/08/31 06:06:52;;;;;;;16.90;12.40;;;15.20;99.90;;;;;;5013044;28;20829;-67
2021/08/31 06:09:19;;;;;;;17.27;14.10;;;15.20;99.90;;;;;;5012912;28;20456;-66
2021/08/31 06:11:46;;;;;;;16.63;13.77;;;15.20;99.90;;;;;;5012769;28;20577;-67
2021/08/31 06:14:13;;;;;;;15.50;13.20;;;15.30;99.90;;;;;;5012759;28;20477;-66
2021/08/31 06:16:40;;;;;;;16.30;12.37;;;15.30;99.90;;;;;;5012851;28;20822;-66
2021/08/31 06:19:08;;;;;;;14.90;13.10;;;15.30;99.90;;;;;;5012715;28;20613;-67
2021/08/31 06:21:35;;;;;;;15.67;14.10;;;15.30;99.90;;;;;;5012531;28;20965;-67
2021/08/31 06:24:02;;;;;;;14.33;12.83;;;15.40;99.90;;;;;;5012553;28;20474;-67
2021/08/31 06:26:29;;;;;;;15.97;13.60;;;15.40;99.90;;;;;;5012707;28;20455;-67
2021/08/31 06:28:55;;;;;;;13.23;11.67;;;15.50;99.90;;;;;;5012801;28;20460;-67
2021/08/31 06:31:22;;;;;;;14.80;13.20;;;15.50;99.90;;;;;;5012398;28;21031;-66
2021/08/31 06:33:49;;;;;;;14.80;12.90;;;15.60;99.90;;;;;;5011972;28;20470;-67
2021/08/31 06:36:18;;;;;;;13.63;11.63;;;15.60;99.90;;;;;;5012509;28;20540;-67
2021/08/31 06:38:45;;;;;;;15.10;12.40;;;15.70;99.90;;;;;;5012840;28;20530;-67
2021/08/31 06:41:12;;;;;;;17.67;12.20;;;15.70;99.90;;;;;;5012792;28;20450;-67
2021/08/31 06:43:38;;;;;;;20.93;13.80;;;15.90;99.90;;;;;;5012029;28;20470;-67
2021/08/31 06:46:06;;;;;;;12.10;10.80;;;15.90;99.90;;;;;;5012414;28;20545;-66
2021/08/31 06:48:33;;;;;;;13.00;11.50;;;15.90;99.90;;;;;;5012146;28;20445;-66
2021/08/31 06:51:00;;;;;;;12.40;11.10;;;15.80;99.90;;;;;;5011756;28;20929;-66
2021/08/31 06:53:28;;;;;;;13.17;11.20;;;15.90;99.90;;;;;;5011690;28;20482;-66
2021/08/31 06:55:55;;;;;;;12.67;11.10;;;15.90;99.90;;;;;;5011969;28;20541;-67
2021/08/31 06:58:22;;;;;;;11.70;10.37;;;15.90;99.90;;;;;;5011861;28;20821;-66
2021/08/31 07:00:49;;;;;;;12.27;10.77;;;15.90;99.90;;;;;;5011793;28;20460;-66
2021/08/31 07:03:16;;;;;;;14.50;10.50;;;15.90;99.90;;;;;;5011235;28;21011;-67
2021/08/31 07:05:43;;;;;;;12.13;10.23;;;15.90;99.90;;;;;;5011776;28;21147;-66
2021/08/31 07:08:10;;;;;;;13.57;10.47;;;15.90;99.90;;;;;;5011388;28;20449;-66
2021/08/31 07:10:38;;;;;;;12.93;11.33;;;16.10;99.90;;;;;;5011670;28;20573;-66
2021/08/31 07:13:05;;;;;;;11.60;10.50;;;16.20;99.90;;;;;;5011265;28;20565;-67
2021/08/31 07:15:32;;;;;;;11.73;10.30;;;16.30;99.90;;;;;;5011270;28;20464;-66
2021/08/31 07:17:59;;;;;;;13.80;10.93;;;16.40;99.90;;;;;;5011302;28;20453;-66
2021/08/31 07:20:27;;;;;;;13.13;10.50;;;16.40;99.90;;;;;;5011233;28;20937;-66
2021/08/31 07:22:53;;;;;;;9.93;8.93;;;16.50;99.90;;;;;;5011112;28;20478;-67
2021/08/31 07:25:21;;;;;;;10.60;9.50;;;16.70;99.90;;;;;;5011314;28;20533;-67
2021/08/31 07:27:49;;;;;;;10.70;9.60;;;16.70;99.90;;;;;;5011342;28;20930;-67
2021/08/31 07:30:16;;;;;;;11.03;9.83;;;16.70;99.90;;;;;;5011009;28;20438;-67
2021/08/31 07:32:43;;;;;;;12.50;11.20;;;16.70;99.90;;;;;;5010607;28;20565;-67
2021/08/31 07:35:11;;;;;;;13.20;10.40;;;16.70;99.90;;;;;;5011224;28;20524;-67
2021/08/31 07:37:38;;;;;;;11.40;10.30;;;16.70;99.90;;;;;;5011107;28;21016;-67
2021/08/31 07:40:06;;;;;;;15.00;10.50;;;16.70;99.90;;;;;;5011029;28;20457;-68
2021/08/31 07:42:33;;;;;;;11.13;9.87;;;16.70;99.90;;;;;;5002734;28;20577;-68
2021/08/31 07:45:04;;;;;;;10.97;9.90;;;16.80;99.90;;;;;;5002135;28;20442;-68
2021/08/31 07:47:31;;;;;;;10.73;9.23;;;16.80;99.90;;;;;;5002364;28;20461;-68
2021/08/31 07:49:58;;;;;;;11.07;9.43;;;16.80;99.90;;;;;;4999334;28;20477;-67
2021/08/31 07:52:26;;;;;;;11.07;9.70;;;16.90;99.90;;;;;;4997697;28;20487;-67
2021/08/31 07:54:53;;;;;;;11.17;9.20;;;16.90;99.90;;;;;;5004384;28;20528;-68
2021/08/31 07:57:19;;;;;;;12.60;8.97;;;17.20;99.90;;;;;;5010846;28;20481;-67
2021/08/31 07:59:46;;;;;;;11.70;9.33;;;17.10;99.90;;;;;;5010477;28;20795;-67
2021/08/31 08:02:15;;;;;;;11.00;9.90;;;17.00;99.90;;;;;;5009213;28;20457;-67
2021/08/31 08:04:41;;;;;;;10.60;9.40;;;17.10;99.90;;;;;;5010655;28;20203;-69
2021/08/31 08:07:08;;;;;;;16.10;9.77;;;17.30;99.90;;;;;;5010718;28;20450;-67
2021/08/31 08:09:35;;;;;;;10.07;9.03;;;17.30;99.90;;;;;;5010833;28;20469;-68
2021/08/31 08:12:02;;;;;;;11.40;10.13;;;17.30;99.90;;;;;;5003460;28;20482;-66
2021/08/31 08:14:29;;;;;;;10.87;9.40;;;17.30;99.90;;;;;;5015032;28;20856;-67
2021/08/31 08:16:56;;;;;;;10.77;9.70;;;17.40;99.90;;;;;;5020491;28;20440;-66
2021/08/31 08:19:24;;;;;;;11.83;10.07;;;17.60;99.90;;;;;;5028663;28;20953;-66
2021/08/31 08:21:51;;;;;;;11.37;10.13;;;17.50;99.90;;;;;;5028404;28;20449;-66
2021/08/31 08:24:18;;;;;;;10.80;9.80;;;17.50;99.90;;;;;;5007669;28;20556;-65
2021/08/31 08:26:45;;;;;;;9.17;8.27;;;17.70;99.90;;;;;;5017041;28;20549;-66
2021/08/31 08:29:11;;;;;;;11.47;9.53;;;17.70;99.90;;;;;;5026909;28;20495;-65
2021/08/31 08:31:42;;;;;;;11.60;8.97;;;17.60;99.90;;;;;;5026923;28;20510;-65
2021/08/31 08:34:09;;;;;;;10.23;9.23;;;17.60;99.90;;;;;;5027591;28;20567;-65
2021/08/31 08:36:38;;;;;;;11.30;10.03;;;17.80;99.90;;;;;;5027398;28;20528;-66
2021/08/31 08:39:05;;;;;;;9.10;8.20;;;18.00;99.90;;;;;;5028331;28;21137;-67
2021/08/31 08:41:32;;;;;;;10.43;9.43;;;18.10;99.90;;;;;;5027637;28;20459;-65
2021/08/31 08:44:00;;;;;;;11.50;8.60;;;18.00;99.90;;;;;;5028113;28;20846;-66
2021/08/31 08:46:27;;;;;;;11.33;9.70;;;17.80;99.90;;;;;;5028337;28;20449;-66
2021/08/31 08:48:57;;;;;;;9.10;8.20;;;17.90;99.90;;;;;;5028085;28;20451;-66
2021/08/31 08:51:24;;;;;;;9.20;8.30;;;17.90;99.90;;;;;;5027876;28;20575;-66
2021/08/31 08:53:53;;;;;;;10.13;8.80;;;18.10;99.90;;;;;;5027653;28;20548;-66
2021/08/31 08:56:20;;;;;;;10.60;7.90;;;18.30;99.90;;;;;;5028526;28;20445;-66
2021/08/31 08:58:47;;;;;;;9.30;8.40;;;18.40;99.90;;;;;;5030776;28;20576;-66
2021/08/31 09:01:14;;;;;;;9.40;8.40;;;18.30;99.90;;;;;;5014823;28;20450;-66
2021/08/31 09:03:43;;;;;;;8.30;7.50;;;18.50;99.90;;;;;;5012695;28;20488;-66
2021/08/31 09:06:13;;;;;;;9.47;8.57;;;18.60;99.90;;;;;;5009255;28;20544;-66
2021/08/31 09:08:42;;;;;;;15.87;8.90;;;18.60;99.90;;;;;;5020524;28;20817;-66
2021/08/31 09:11:19;;;;;;;9.40;8.40;;;18.80;99.90;;;;;;5022754;28;20473;-66
2021/08/31 09:13:47;;;;;;;8.60;7.60;;;18.90;99.90;;;;;;5032086;28;20503;-66
2021/08/31 09:16:24;;;;;;;8.60;7.60;;;18.90;99.90;;;;;;5031927;28;20459;-66
2021/08/31 09:18:52;;;;;;;8.80;8.00;;;18.90;99.90;;;;;;5031742;28;20440;-67
2021/08/31 09:21:22;;;;;;;11.37;8.00;;;18.90;99.90;;;;;;5031867;28;20531;-66
2021/08/31 09:23:51;;;;;;;8.67;7.40;;;19.00;99.90;;;;;;5031954;28;20999;-65
2021/08/31 09:26:19;;;;;;;8.30;7.50;;;19.00;99.90;;;;;;5021287;28;20993;-66
2021/08/31 09:28:49;;;;;;;8.47;7.57;;;19.00;99.90;;;;;;5012071;28;20461;-66
2021/08/31 09:31:19;;;;;;;9.83;8.47;;;19.00;99.90;;;;;;5012042;28;21025;-66
2021/08/31 09:33:49;;;;;;;8.27;7.20;;;18.80;99.90;;;;;;5012079;28;20468;-66
2021/08/31 09:36:18;;;;;;;8.70;7.80;;;18.70;99.90;;;;;;5012071;28;20444;-66
2021/08/31 09:38:52;;;;;;;9.33;7.60;;;18.80;99.90;;;;;;5011830;28;20992;-66
2021/08/31 09:41:35;;;;;;;9.60;8.10;;;18.80;99.90;;;;;;5011872;28;20456;-66
2021/08/31 09:44:06;;;;;;;8.00;7.00;;;19.10;99.90;;;;;;5011442;28;20477;-67
2021/08/31 09:46:56;;;;;;;7.13;6.43;;;19.10;99.90;;;;;;5012056;28;20454;-65
2021/08/31 09:49:27;;;;;;;8.80;7.50;;;19.30;99.90;;;;;;5011812;28;20461;-66
2021/08/31 09:52:03;;;;;;;10.70;8.00;;;19.60;99.90;;;;;;5011174;28;20484;-66
2021/08/31 09:54:31;;;;;;;8.10;7.30;;;19.60;99.90;;;;;;5011248;28;21308;-66
2021/08/31 09:56:59;;;;;;;6.53;5.83;;;19.60;99.90;;;;;;5011633;28;20441;-66
2021/08/31 09:59:26;;;;;;;8.90;7.30;;;19.60;99.90;;;;;;5011618;28;20454;-67
2021/08/31 10:01:54;;;;;;;26.03;9.43;;;19.30;99.90;;;;;;5011238;28;20448;-68
2021/08/31 10:04:21;;;;;;;8.17;7.30;;;19.30;99.90;;;;;;5011628;28;20830;-66
2021/08/31 10:06:49;;;;;;;10.40;7.67;;;19.20;99.90;;;;;;5012855;28;20552;-65
2021/08/31 10:09:16;;;;;;;19.27;9.00;;;19.10;99.90;;;;;;5012909;28;20488;-67
2021/08/31 10:11:43;;;;;;;12.33;7.43;;;19.00;99.90;;;;;;5012718;28;20489;-67
2021/08/31 10:14:15;;;;;;;22.40;8.50;;;19.20;99.90;;;;;;5012692;28;20985;-67
2021/08/31 10:16:43;;;;;;;7.50;6.40;;;19.30;99.90;;;;;;5012965;28;20450;-67
2021/08/31 10:19:10;;;;;;;28.83;9.50;;;19.00;99.90;;;;;;5012594;28;20460;-67
2021/08/31 10:21:39;;;;;;;62.50;12.80;;;18.90;99.90;;;;;;5012337;28;20941;-67
2021/08/31 10:24:06;;;;;;;15.60;7.70;;;19.10;99.90;;;;;;5012741;28;20462;-66
2021/08/31 10:26:34;;;;;;;7.20;6.20;;;19.20;99.90;;;;;;5012805;28;20560;-66
2021/08/31 10:29:28;;;;;;;7.90;7.10;;;19.20;99.90;;;;;;5012598;28;20552;-66
2021/08/31 10:31:56;;;;;;;7.30;6.60;;;19.10;99.90;;;;;;5009340;28;20489;-67
2021/08/31 10:34:45;;;;;;;8.73;7.30;;;19.00;99.90;;;;;;5012565;28;20549;-65
2021/08/31 10:37:14;;;;;;;8.37;6.87;;;19.10;99.90;;;;;;5012354;28;20458;-64
2021/08/31 10:39:47;;;;;;;8.10;7.30;;;19.30;99.90;;;;;;5012305;28;20882;-65
2021/08/31 10:42:41;;;;;;;7.63;6.80;;;19.50;99.90;;;;;;5011762;28;20505;-65
2021/08/31 10:45:32;;;;;;;8.20;7.30;;;19.80;99.90;;;;;;5012563;28;20457;-64
2021/08/31 10:48:00;;;;;;;9.70;7.47;;;19.80;99.90;;;;;;5012356;28;20486;-65
2021/08/31 10:50:30;;;;;;;10.57;6.83;;;19.80;99.90;;;;;;5011971;28;20472;-66
2021/08/31 10:53:04;;;;;;;10.63;7.47;;;19.90;99.90;;;;;;5011534;28;20525;-65
2021/08/31 10:55:40;;;;;;;8.43;6.77;;;19.90;99.90;;;;;;5012129;28;20988;-65
2021/08/31 10:58:09;;;;;;;6.33;5.47;;;20.10;99.90;;;;;;5012038;28;20953;-66
2021/08/31 11:00:54;;;;;;;8.30;6.20;;;20.40;99.90;;;;;;5012030;28;20492;-65
2021/08/31 11:03:37;;;;;;;7.40;6.23;;;20.60;99.90;;;;;;5011466;28;20992;-66
2021/08/31 11:06:31;;;;;;;47.07;11.30;;;20.90;99.90;;;;;;5011932;28;20496;-66
2021/08/31 11:09:17;;;;;;;11.70;7.80;;;20.90;99.90;;;;;;4998500;28;20520;-66
2021/08/31 11:11:50;;;;;;;112.13;18.00;;;20.70;99.90;;;;;;5011298;28;20489;-66
2021/08/31 11:14:18;;;;;;;28.63;10.43;;;20.70;99.90;;;;;;5008711;28;20462;-66
2021/08/31 11:16:48;;;;;;;12.00;7.37;;;20.90;99.90;;;;;;4999878;28;20446;-67
2021/08/31 11:19:29;;;;;;;6.93;6.23;;;21.20;99.90;;;;;;5011633;28;20457;-66
2021/08/31 11:21:57;;;;;;;7.43;6.70;;;21.20;99.90;;;;;;5005074;28;20532;-66
2021/08/31 11:24:26;;;;;;;7.33;6.53;;;21.00;99.90;;;;;;4997508;28;20453;-66
2021/08/31 11:26:58;;;;;;;53.00;12.27;;;21.30;99.90;;;;;;5007818;28;20470;-67
2021/08/31 11:29:25;;;;;;;121.57;19.93;;;21.90;99.90;;;;;;4997702;28;20442;-67
2021/08/31 11:32:00;;;;;;;40.47;11.23;;;22.20;99.90;;;;;;5010621;28;20587;-66
2021/08/31 11:34:27;;;;;;;7.47;6.30;;;21.60;99.90;;;;;;5011113;28;20457;-66
2021/08/31 11:37:02;;;;;;;6.93;5.87;;;21.30;99.90;;;;;;5011422;28;20877;-66
2021/08/31 11:39:29;;;;;;;6.23;5.63;;;21.00;99.90;;;;;;5011196;28;20922;-67
2021/08/31 11:41:56;;;;;;;8.57;6.57;;;21.00;99.90;;;;;;5010701;28;20442;-66
2021/08/31 11:44:24;;;;;;;6.73;6.10;;;21.00;99.90;;;;;;5011381;28;20488;-66
2021/08/31 11:46:53;;;;;;;8.33;6.30;;;21.20;99.90;;;;;;5011323;28;20891;-66
2021/08/31 11:49:23;;;;;;;7.40;6.13;;;21.20;99.90;;;;;;5011423;28;20882;-65
2021/08/31 11:52:03;;;;;;;6.73;6.07;;;21.40;99.90;;;;;;5010834;28;20468;-65
2021/08/31 11:54:32;;;;;;;7.47;6.40;;;21.50;99.90;;;;;;5011051;28;20482;-66
2021/08/31 11:57:00;;;;;;;7.00;5.90;;;21.50;99.90;;;;;;5010942;28;20485;-65
2021/08/31 11:59:35;;;;;;;8.00;6.50;;;21.40;99.90;;;;;;5011387;28;20484;-66
2021/08/31 12:02:11;;;;;;;7.20;6.50;;;21.10;99.90;;;;;;5011337;28;20449;-65
2021/08/31 12:04:39;;;;;;;7.90;6.13;;;21.10;99.90;;;;;;5011376;28;20449;-65
2021/08/31 12:07:09;;;;;;;7.03;6.33;;;21.20;99.90;;;;;;5011529;28;20552;-65
2021/08/31 12:09:41;;;;;;;8.23;7.07;;;21.00;99.90;;;;;;5010640;28;20445;-65
2021/08/31 12:12:09;;;;;;;7.20;6.43;;;20.80;99.90;;;;;;5001715;28;20493;-68
2021/08/31 12:14:36;;;;;;;12.13;6.10;;;20.90;99.90;;;;;;4999389;28;20453;-66
2021/08/31 12:17:03;;;;;;;6.43;5.70;;;21.30;99.90;;;;;;5007543;28;20461;-66
2021/08/31 12:19:30;;;;;;;8.83;5.77;;;21.40;99.90;;;;;;5009124;28;20473;-66
2021/08/31 12:22:10;;;;;;;6.40;5.80;;;21.40;99.90;;;;;;5009041;28;20520;-66
2021/08/31 12:24:40;;;;;;;10.93;6.00;;;21.40;99.90;;;;;;5004992;28;20831;-66
2021/08/31 12:27:11;;;;;;;8.10;5.47;;;21.40;99.90;;;;;;4989956;28;20450;-66
2021/08/31 12:29:50;;;;;;;9.53;6.03;;;21.80;99.90;;;;;;4989213;28;20461;-66
2021/08/31 12:32:22;;;;;;;36.93;9.93;;;21.80;99.90;;;;;;4987183;28;20573;-66
2021/08/31 12:34:49;;;;;;;16.30;6.53;;;21.90;99.90;;;;;;4989062;28;20546;-66
2021/08/31 12:37:33;;;;;;;6.63;5.90;;;21.80;99.90;;;;;;4989002;28;20438;-66
2021/08/31 12:40:10;;;;;;;9.20;5.73;;;22.00;99.90;;;;;;4989088;28;20448;-66